sensor_id;sensor_type;location;lat;lon;timestamp;temperature;humidity
1506;DHT22;744;51.436;7.356;2023-02-26T00:01:01;3.90;43.00
1506;DHT22;744;51.436;7.356;2023-02-26T00:03:28;4.00;43.20
1506;DHT22;744;51.436;7.356;2023-02-26T00:05:59;3.80;43.30
1506;DHT22;744;51.436;7.356;2023-02-26T00:08:27;3.90;43.50
1506;DHT22;744;51.436;7.356;2023-02-26T00:10:54;3.90;43.50
1506;DHT22;744;51.436;7.356;2023-02-26T00:13:21;3.80;43.40
1506;DHT22;744;51.436;7.356;2023-02-26T00:15:49;4.00;43.50
1506;DHT22;744;51.436;7.356;2023-02-26T00:18:18;3.80;43.30
1506;DHT22;744;51.436;7.356;2023-02-26T00:20:45;4.00;43.40
1506;DHT22;744;51.436;7.356;2023-02-26T00:23:12;3.70;43.20
1506;DHT22;744;51.436;7.356;2023-02-26T00:25:40;3.90;43.50
1506;DHT22;744;51.436;7.356;2023-02-26T00:28:08;3.80;43.50
1506;DHT22;744;51.436;7.356;2023-02-26T00:30:35;3.70;43.20
1506;DHT22;744;51.436;7.356;2023-02-26T00:33:03;4.00;43.40
1506;DHT22;744;51.436;7.356;2023-02-26T00:35:31;3.70;43.30
1506;DHT22;744;51.436;7.356;2023-02-26T00:40:37;3.70;43.40
1506;DHT22;744;51.436;7.356;2023-02-26T00:43:08;3.70;43.30
1506;DHT22;744;51.436;7.356;2023-02-26T00:45:37;3.70;43.20
1506;DHT22;744;51.436;7.356;2023-02-26T00:48:20;3.80;43.30
1506;DHT22;744;51.436;7.356;2023-02-26T00:50:58;3.80;43.30
1506;DHT22;744;51.436;7.356;2023-02-26T00:53:48;3.90;43.20
1506;DHT22;744;51.436;7.356;2023-02-26T00:56:17;4.20;43.40
1506;DHT22;744;51.436;7.356;2023-02-26T00:58:44;3.90;43.10
1506;DHT22;744;51.436;7.356;2023-02-26T01:01:11;4.20;43.20
1506;DHT22;744;51.436;7.356;2023-02-26T01:03:38;4.60;43.30
1506;DHT22;744;51.436;7.356;2023-02-26T01:06:10;4.80;43.20
1506;DHT22;744;51.436;7.356;2023-02-26T01:08:49;4.70;43.00
1506;DHT22;744;51.436;7.356;2023-02-26T01:11:18;4.40;42.90
1506;DHT22;744;51.436;7.356;2023-02-26T01:13:45;4.60;43.20
1506;DHT22;744;51.436;7.356;2023-02-26T01:16:16;4.70;43.00
1506;DHT22;744;51.436;7.356;2023-02-26T01:18:49;4.40;42.80
1506;DHT22;744;51.436;7.356;2023-02-26T01:21:24;4.60;42.60
1506;DHT22;744;51.436;7.356;2023-02-26T01:23:54;4.50;42.50
1506;DHT22;744;51.436;7.356;2023-02-26T01:26:26;4.60;42.90
1506;DHT22;744;51.436;7.356;2023-02-26T01:28:54;4.40;42.80
1506;DHT22;744;51.436;7.356;2023-02-26T01:31:29;4.50;42.70
1506;DHT22;744;51.436;7.356;2023-02-26T01:34:05;4.20;42.60
1506;DHT22;744;51.436;7.356;2023-02-26T01:36:42;4.40;43.10
1506;DHT22;744;51.436;7.356;2023-02-26T01:39:35;4.10;43.00
1506;DHT22;744;51.436;7.356;2023-02-26T01:44:39;4.00;43.20
1506;DHT22;744;51.436;7.356;2023-02-26T01:49:52;3.90;43.20
1506;DHT22;744;51.436;7.356;2023-02-26T01:55:37;3.90;43.30
1506;DHT22;744;51.436;7.356;2023-02-26T01:58:04;3.80;43.20
1506;DHT22;744;51.436;7.356;2023-02-26T02:00:31;3.70;42.90
1506;DHT22;744;51.436;7.356;2023-02-26T02:02:58;3.70;42.90
1506;DHT22;744;51.436;7.356;2023-02-26T02:07:57;4.00;43.20
1506;DHT22;744;51.436;7.356;2023-02-26T02:10:25;4.00;43.20
1506;DHT22;744;51.436;7.356;2023-02-26T02:19:42;3.90;42.90
1506;DHT22;744;51.436;7.356;2023-02-26T02:22:01;3.70;42.70
1506;DHT22;744;51.436;7.356;2023-02-26T02:27:12;3.80;42.60
1506;DHT22;744;51.436;7.356;2023-02-26T02:30:07;3.70;42.60
1506;DHT22;744;51.436;7.356;2023-02-26T02:32:43;3.80;42.60
1506;DHT22;744;51.436;7.356;2023-02-26T02:35:22;3.80;42.60
1506;DHT22;744;51.436;7.356;2023-02-26T02:37:57;4.00;42.70
1506;DHT22;744;51.436;7.356;2023-02-26T02:40:30;3.60;42.30
1506;DHT22;744;51.436;7.356;2023-02-26T02:43:01;3.70;42.40
1506;DHT22;744;51.436;7.356;2023-02-26T02:45:57;3.80;42.40
1506;DHT22;744;51.436;7.356;2023-02-26T02:48:30;3.90;43.00
1506;DHT22;744;51.436;7.356;2023-02-26T02:51:09;3.70;42.30
1506;DHT22;744;51.436;7.356;2023-02-26T02:53:43;3.50;42.10
1506;DHT22;744;51.436;7.356;2023-02-26T02:56:24;3.70;43.00
1506;DHT22;744;51.436;7.356;2023-02-26T02:59:48;3.80;42.30
1506;DHT22;744;51.436;7.356;2023-02-26T03:04:40;3.70;42.30
1506;DHT22;744;51.436;7.356;2023-02-26T03:07:08;3.70;42.30
1506;DHT22;744;51.436;7.356;2023-02-26T03:09:35;3.70;42.20
1506;DHT22;744;51.436;7.356;2023-02-26T03:12:02;4.00;42.50
1506;DHT22;744;51.436;7.356;2023-02-26T03:14:30;3.90;42.10
1506;DHT22;744;51.436;7.356;2023-02-26T03:19:58;3.70;41.80
1506;DHT22;744;51.436;7.356;2023-02-26T03:22:42;3.90;41.90
1506;DHT22;744;51.436;7.356;2023-02-26T03:25:22;3.90;41.80
1506;DHT22;744;51.436;7.356;2023-02-26T03:28:21;4.00;41.80
1506;DHT22;744;51.436;7.356;2023-02-26T03:31:21;3.90;41.70
1506;DHT22;744;51.436;7.356;2023-02-26T03:35:00;3.90;41.50
1506;DHT22;744;51.436;7.356;2023-02-26T03:37:01;4.00;41.60
1506;DHT22;744;51.436;7.356;2023-02-26T03:39:45;4.10;42.30
1506;DHT22;744;51.436;7.356;2023-02-26T03:42:35;4.10;41.50
1506;DHT22;744;51.436;7.356;2023-02-26T03:45:10;4.20;41.60
1506;DHT22;744;51.436;7.356;2023-02-26T03:47:39;4.20;41.50
1506;DHT22;744;51.436;7.356;2023-02-26T03:50:12;4.20;41.50
1506;DHT22;744;51.436;7.356;2023-02-26T03:52:42;4.30;42.20
1506;DHT22;744;51.436;7.356;2023-02-26T03:55:17;4.10;41.30
1506;DHT22;744;51.436;7.356;2023-02-26T03:57:44;4.20;41.50
1506;DHT22;744;51.436;7.356;2023-02-26T04:00:13;4.40;41.60
1506;DHT22;744;51.436;7.356;2023-02-26T04:02:54;4.40;41.60
1506;DHT22;744;51.436;7.356;2023-02-26T04:05:26;4.10;41.40
1506;DHT22;744;51.436;7.356;2023-02-26T04:07:54;4.10;41.60
1506;DHT22;744;51.436;7.356;2023-02-26T04:10:29;4.30;41.80
1506;DHT22;744;51.436;7.356;2023-02-26T04:12:59;4.20;41.50
1506;DHT22;744;51.436;7.356;2023-02-26T04:15:26;4.20;41.50
1506;DHT22;744;51.436;7.356;2023-02-26T04:17:53;4.30;41.60
1506;DHT22;744;51.436;7.356;2023-02-26T04:20:21;4.40;41.80
1506;DHT22;744;51.436;7.356;2023-02-26T04:22:48;4.10;41.50
1506;DHT22;744;51.436;7.356;2023-02-26T04:25:15;3.90;41.50
1506;DHT22;744;51.436;7.356;2023-02-26T04:27:42;4.00;41.80
1506;DHT22;744;51.436;7.356;2023-02-26T04:30:09;3.90;41.70
1506;DHT22;744;51.436;7.356;2023-02-26T04:32:36;3.80;41.80
1506;DHT22;744;51.436;7.356;2023-02-26T04:35:03;3.70;41.80
1506;DHT22;744;51.436;7.356;2023-02-26T04:37:30;3.60;42.00
1506;DHT22;744;51.436;7.356;2023-02-26T04:39:56;3.70;42.10
1506;DHT22;744;51.436;7.356;2023-02-26T04:42:23;3.70;42.20
1506;DHT22;744;51.436;7.356;2023-02-26T04:44:50;3.80;42.10
1506;DHT22;744;51.436;7.356;2023-02-26T04:47:16;4.10;42.30
1506;DHT22;744;51.436;7.356;2023-02-26T04:49:43;3.70;41.80
1506;DHT22;744;51.436;7.356;2023-02-26T04:52:10;3.70;42.10
1506;DHT22;744;51.436;7.356;2023-02-26T04:54:37;3.70;42.20
1506;DHT22;744;51.436;7.356;2023-02-26T04:57:04;3.50;42.20
1506;DHT22;744;51.436;7.356;2023-02-26T04:59:31;3.80;42.60
1506;DHT22;744;51.436;7.356;2023-02-26T05:01:58;3.70;42.40
1506;DHT22;744;51.436;7.356;2023-02-26T05:04:25;3.70;42.40
1506;DHT22;744;51.436;7.356;2023-02-26T05:06:52;3.60;42.40
1506;DHT22;744;51.436;7.356;2023-02-26T05:09:18;3.50;42.30
1506;DHT22;744;51.436;7.356;2023-02-26T05:11:45;3.70;42.60
1506;DHT22;744;51.436;7.356;2023-02-26T05:14:14;3.50;42.50
1506;DHT22;744;51.436;7.356;2023-02-26T05:16:41;3.40;42.60
1506;DHT22;744;51.436;7.356;2023-02-26T05:19:08;3.20;42.50
1506;DHT22;744;51.436;7.356;2023-02-26T05:21:35;3.40;42.70
1506;DHT22;744;51.436;7.356;2023-02-26T05:24:02;3.30;42.70
1506;DHT22;744;51.436;7.356;2023-02-26T05:26:29;3.30;42.80
1506;DHT22;744;51.436;7.356;2023-02-26T05:28:56;3.30;42.90
1506;DHT22;744;51.436;7.356;2023-02-26T05:31:23;3.20;42.70
1506;DHT22;744;51.436;7.356;2023-02-26T05:33:50;3.30;42.70
1506;DHT22;744;51.436;7.356;2023-02-26T05:36:17;3.30;42.80
1506;DHT22;744;51.436;7.356;2023-02-26T05:38:44;3.40;42.70
1506;DHT22;744;51.436;7.356;2023-02-26T05:41:11;3.30;42.60
1506;DHT22;744;51.436;7.356;2023-02-26T05:43:38;3.30;42.70
1506;DHT22;744;51.436;7.356;2023-02-26T05:46:05;3.30;42.70
1506;DHT22;744;51.436;7.356;2023-02-26T05:48:32;3.30;42.80
1506;DHT22;744;51.436;7.356;2023-02-26T05:50:59;3.20;42.70
1506;DHT22;744;51.436;7.356;2023-02-26T05:53:26;3.40;42.90
1506;DHT22;744;51.436;7.356;2023-02-26T05:55:53;3.40;42.90
1506;DHT22;744;51.436;7.356;2023-02-26T05:58:20;3.30;42.90
1506;DHT22;744;51.436;7.356;2023-02-26T06:00:47;3.00;42.80
1506;DHT22;744;51.436;7.356;2023-02-26T06:03:14;3.10;43.00
1506;DHT22;744;51.436;7.356;2023-02-26T06:05:41;3.10;43.00
1506;DHT22;744;51.436;7.356;2023-02-26T06:08:08;3.30;42.90
1506;DHT22;744;51.436;7.356;2023-02-26T06:10:34;3.10;42.90
1506;DHT22;744;51.436;7.356;2023-02-26T06:13:01;3.20;42.80
1506;DHT22;744;51.436;7.356;2023-02-26T06:15:28;3.20;42.80
1506;DHT22;744;51.436;7.356;2023-02-26T06:17:55;3.10;42.70
1506;DHT22;744;51.436;7.356;2023-02-26T06:20:21;3.20;42.70
1506;DHT22;744;51.436;7.356;2023-02-26T06:22:48;3.30;42.80
1506;DHT22;744;51.436;7.356;2023-02-26T06:25:15;3.30;42.80
1506;DHT22;744;51.436;7.356;2023-02-26T06:27:42;3.30;42.90
1506;DHT22;744;51.436;7.356;2023-02-26T06:30:10;3.40;43.10
1506;DHT22;744;51.436;7.356;2023-02-26T06:32:37;3.30;42.90
1506;DHT22;744;51.436;7.356;2023-02-26T06:35:04;3.20;43.00
1506;DHT22;744;51.436;7.356;2023-02-26T06:37:31;3.20;43.00
1506;DHT22;744;51.436;7.356;2023-02-26T06:39:59;3.40;43.20
1506;DHT22;744;51.436;7.356;2023-02-26T06:42:26;3.20;43.00
1506;DHT22;744;51.436;7.356;2023-02-26T06:44:52;3.20;42.90
1506;DHT22;744;51.436;7.356;2023-02-26T06:47:19;3.30;42.90
1506;DHT22;744;51.436;7.356;2023-02-26T06:49:46;3.60;43.20
1506;DHT22;744;51.436;7.356;2023-02-26T06:52:14;3.30;42.90
1506;DHT22;744;51.436;7.356;2023-02-26T06:54:40;3.50;42.90
1506;DHT22;744;51.436;7.356;2023-02-26T06:57:07;3.50;43.00
1506;DHT22;744;51.436;7.356;2023-02-26T06:59:34;3.70;43.10
1506;DHT22;744;51.436;7.356;2023-02-26T07:02:01;3.40;42.80
1506;DHT22;744;51.436;7.356;2023-02-26T07:04:27;3.40;42.80
1506;DHT22;744;51.436;7.356;2023-02-26T07:06:54;3.40;43.00
1506;DHT22;744;51.436;7.356;2023-02-26T07:09:21;3.40;43.00
1506;DHT22;744;51.436;7.356;2023-02-26T07:11:48;3.50;43.10
1506;DHT22;744;51.436;7.356;2023-02-26T07:14:15;3.50;42.90
1506;DHT22;744;51.436;7.356;2023-02-26T07:16:42;3.50;42.90
1506;DHT22;744;51.436;7.356;2023-02-26T07:19:09;3.40;42.90
1506;DHT22;744;51.436;7.356;2023-02-26T07:21:36;3.50;42.90
1506;DHT22;744;51.436;7.356;2023-02-26T07:24:03;3.50;43.00
1506;DHT22;744;51.436;7.356;2023-02-26T07:26:31;3.50;43.00
1506;DHT22;744;51.436;7.356;2023-02-26T07:28:57;3.50;43.10
1506;DHT22;744;51.436;7.356;2023-02-26T07:31:24;3.60;43.20
1506;DHT22;744;51.436;7.356;2023-02-26T07:33:51;3.50;43.10
1506;DHT22;744;51.436;7.356;2023-02-26T07:36:18;3.50;43.00
1506;DHT22;744;51.436;7.356;2023-02-26T07:38:44;3.60;43.20
1506;DHT22;744;51.436;7.356;2023-02-26T07:41:11;3.50;43.10
1506;DHT22;744;51.436;7.356;2023-02-26T07:43:38;3.70;43.20
1506;DHT22;744;51.436;7.356;2023-02-26T07:46:05;3.70;43.10
1506;DHT22;744;51.436;7.356;2023-02-26T07:48:32;3.50;43.00
1506;DHT22;744;51.436;7.356;2023-02-26T07:50:58;3.60;43.10
1506;DHT22;744;51.436;7.356;2023-02-26T07:53:25;3.50;43.20
1506;DHT22;744;51.436;7.356;2023-02-26T07:55:52;3.50;43.00
1506;DHT22;744;51.436;7.356;2023-02-26T07:58:19;3.60;43.30
1506;DHT22;744;51.436;7.356;2023-02-26T08:00:46;3.50;43.40
1506;DHT22;744;51.436;7.356;2023-02-26T08:03:12;3.50;43.30
1506;DHT22;744;51.436;7.356;2023-02-26T08:05:40;3.40;43.10
1506;DHT22;744;51.436;7.356;2023-02-26T08:08:07;3.40;43.00
1506;DHT22;744;51.436;7.356;2023-02-26T08:10:34;3.60;43.30
1506;DHT22;744;51.436;7.356;2023-02-26T08:13:01;3.80;43.40
1506;DHT22;744;51.436;7.356;2023-02-26T08:15:28;3.70;43.90
1506;DHT22;744;51.436;7.356;2023-02-26T08:17:54;3.60;43.10
1506;DHT22;744;51.436;7.356;2023-02-26T08:20:22;3.90;43.60
1506;DHT22;744;51.436;7.356;2023-02-26T08:22:51;3.70;43.20
1506;DHT22;744;51.436;7.356;2023-02-26T08:25:18;3.80;43.10
1506;DHT22;744;51.436;7.356;2023-02-26T08:27:45;3.90;43.80
1506;DHT22;744;51.436;7.356;2023-02-26T08:30:12;4.00;43.20
1506;DHT22;744;51.436;7.356;2023-02-26T08:32:39;3.70;42.90
1506;DHT22;744;51.436;7.356;2023-02-26T08:35:09;3.70;43.00
1506;DHT22;744;51.436;7.356;2023-02-26T08:37:35;3.80;43.00
1506;DHT22;744;51.436;7.356;2023-02-26T08:40:04;3.90;43.10
1506;DHT22;744;51.436;7.356;2023-02-26T08:42:31;3.90;42.90
1506;DHT22;744;51.436;7.356;2023-02-26T08:44:58;3.90;42.90
1506;DHT22;744;51.436;7.356;2023-02-26T08:47:25;3.90;42.80
1506;DHT22;744;51.436;7.356;2023-02-26T08:49:54;3.90;42.70
1506;DHT22;744;51.436;7.356;2023-02-26T08:52:22;3.90;42.80
1506;DHT22;744;51.436;7.356;2023-02-26T08:54:49;4.00;42.80
1506;DHT22;744;51.436;7.356;2023-02-26T08:57:15;4.10;42.90
1506;DHT22;744;51.436;7.356;2023-02-26T08:59:42;3.90;42.60
1506;DHT22;744;51.436;7.356;2023-02-26T09:02:11;4.10;42.60
1506;DHT22;744;51.436;7.356;2023-02-26T09:04:38;4.20;42.50
1506;DHT22;744;51.436;7.356;2023-02-26T09:07:05;4.30;42.70
1506;DHT22;744;51.436;7.356;2023-02-26T09:09:32;4.30;42.30
1506;DHT22;744;51.436;7.356;2023-02-26T09:11:58;4.40;42.20
1506;DHT22;744;51.436;7.356;2023-02-26T09:14:25;4.20;42.00
1506;DHT22;744;51.436;7.356;2023-02-26T09:16:52;4.40;42.10
1506;DHT22;744;51.436;7.356;2023-02-26T09:19:19;4.40;41.70
1506;DHT22;744;51.436;7.356;2023-02-26T09:21:47;4.40;41.60
1506;DHT22;744;51.436;7.356;2023-02-26T09:24:13;4.40;41.60
1506;DHT22;744;51.436;7.356;2023-02-26T09:26:40;4.50;41.50
1506;DHT22;744;51.436;7.356;2023-02-26T09:29:07;4.50;41.50
1506;DHT22;744;51.436;7.356;2023-02-26T09:31:34;4.60;41.50
1506;DHT22;744;51.436;7.356;2023-02-26T09:34:01;4.70;41.40
1506;DHT22;744;51.436;7.356;2023-02-26T09:36:28;4.50;41.20
1506;DHT22;744;51.436;7.356;2023-02-26T09:38:56;4.70;41.20
1506;DHT22;744;51.436;7.356;2023-02-26T09:41:30;4.60;41.00
1506;DHT22;744;51.436;7.356;2023-02-26T09:47:36;4.50;41.00
1506;DHT22;744;51.436;7.356;2023-02-26T09:52:35;4.70;41.10
1506;DHT22;744;51.436;7.356;2023-02-26T09:55:14;4.70;40.90
1506;DHT22;744;51.436;7.356;2023-02-26T09:57:44;5.00;40.80
1506;DHT22;744;51.436;7.356;2023-02-26T10:00:46;5.10;40.70
1506;DHT22;744;51.436;7.356;2023-02-26T10:03:31;4.90;40.40
1506;DHT22;744;51.436;7.356;2023-02-26T10:11:43;5.20;40.10
1506;DHT22;744;51.436;7.356;2023-02-26T10:14:24;4.90;39.80
1506;DHT22;744;51.436;7.356;2023-02-26T10:16:56;4.70;39.90
1506;DHT22;744;51.436;7.356;2023-02-26T10:19:31;4.90;40.00
1506;DHT22;744;51.436;7.356;2023-02-26T10:25:06;5.20;39.80
1506;DHT22;744;51.436;7.356;2023-02-26T10:27:37;5.00;39.80
1506;DHT22;744;51.436;7.356;2023-02-26T10:30:36;5.10;39.50
1506;DHT22;744;51.436;7.356;2023-02-26T10:35:44;5.10;39.40
1506;DHT22;744;51.436;7.356;2023-02-26T10:38:17;5.40;39.50
1506;DHT22;744;51.436;7.356;2023-02-26T10:40:54;5.40;39.40
1506;DHT22;744;51.436;7.356;2023-02-26T10:51:48;5.70;38.60
1506;DHT22;744;51.436;7.356;2023-02-26T10:54:32;5.50;38.30
1506;DHT22;744;51.436;7.356;2023-02-26T10:56:59;5.40;38.30
1506;DHT22;744;51.436;7.356;2023-02-26T10:59:26;5.60;39.20
1506;DHT22;744;51.436;7.356;2023-02-26T11:01:54;5.60;38.00
1506;DHT22;744;51.436;7.356;2023-02-26T11:04:23;5.50;37.50
1506;DHT22;744;51.436;7.356;2023-02-26T11:06:58;5.70;37.50
1506;DHT22;744;51.436;7.356;2023-02-26T11:09:33;5.60;38.10
1506;DHT22;744;51.436;7.356;2023-02-26T11:14:33;5.40;36.60
1506;DHT22;744;51.436;7.356;2023-02-26T11:17:03;5.50;36.60
1506;DHT22;744;51.436;7.356;2023-02-26T11:19:34;5.60;36.60
1506;DHT22;744;51.436;7.356;2023-02-26T11:22:03;5.80;36.70
1506;DHT22;744;51.436;7.356;2023-02-26T11:24:37;5.80;36.40
1506;DHT22;744;51.436;7.356;2023-02-26T11:27:16;6.00;36.40
1506;DHT22;744;51.436;7.356;2023-02-26T11:29:47;5.80;35.90
1506;DHT22;744;51.436;7.356;2023-02-26T11:32:34;5.90;35.90
1506;DHT22;744;51.436;7.356;2023-02-26T11:35:02;6.00;35.30
1506;DHT22;744;51.436;7.356;2023-02-26T11:37:33;6.00;35.30
1506;DHT22;744;51.436;7.356;2023-02-26T11:40:20;6.00;35.00
1506;DHT22;744;51.436;7.356;2023-02-26T11:42:52;6.00;34.70
1506;DHT22;744;51.436;7.356;2023-02-26T11:45:20;6.00;34.70
1506;DHT22;744;51.436;7.356;2023-02-26T11:47:49;6.10;34.90
1506;DHT22;744;51.436;7.356;2023-02-26T11:50:20;5.90;34.70
1506;DHT22;744;51.436;7.356;2023-02-26T11:53:05;6.40;35.00
1506;DHT22;744;51.436;7.356;2023-02-26T11:55:38;6.30;34.60
1506;DHT22;744;51.436;7.356;2023-02-26T11:58:17;6.40;34.60
1506;DHT22;744;51.436;7.356;2023-02-26T12:00:45;6.40;34.40
1506;DHT22;744;51.436;7.356;2023-02-26T12:03:36;6.40;34.50
1506;DHT22;744;51.436;7.356;2023-02-26T12:06:15;6.40;34.50
1506;DHT22;744;51.436;7.356;2023-02-26T12:08:43;6.40;34.30
1506;DHT22;744;51.436;7.356;2023-02-26T12:11:16;6.60;34.50
1506;DHT22;744;51.436;7.356;2023-02-26T12:14:12;6.10;33.90
1506;DHT22;744;51.436;7.356;2023-02-26T12:22:26;6.30;33.80
1506;DHT22;744;51.436;7.356;2023-02-26T12:28:27;6.20;33.10
1506;DHT22;744;51.436;7.356;2023-02-26T12:56:22;6.20;31.70
1506;DHT22;744;51.436;7.356;2023-02-26T12:59:17;6.20;32.10
1506;DHT22;744;51.436;7.356;2023-02-26T13:04:48;6.40;31.80
1506;DHT22;744;51.436;7.356;2023-02-26T13:07:36;6.50;31.60
1506;DHT22;744;51.436;7.356;2023-02-26T13:10:19;6.90;31.90
1506;DHT22;744;51.436;7.356;2023-02-26T13:15:53;7.00;31.60
1506;DHT22;744;51.436;7.356;2023-02-26T13:21:06;6.70;31.50
1506;DHT22;744;51.436;7.356;2023-02-26T13:26:17;6.60;31.30
1506;DHT22;744;51.436;7.356;2023-02-26T13:28:56;6.40;31.30
1506;DHT22;744;51.436;7.356;2023-02-26T13:32:03;6.60;31.50
1506;DHT22;744;51.436;7.356;2023-02-26T13:36:57;6.60;31.50
1506;DHT22;744;51.436;7.356;2023-02-26T13:39:44;6.90;31.10
1506;DHT22;744;51.436;7.356;2023-02-26T13:42:37;6.70;30.90
1506;DHT22;744;51.436;7.356;2023-02-26T13:51:28;6.90;31.10
1506;DHT22;744;51.436;7.356;2023-02-26T13:54:00;7.20;31.50
1506;DHT22;744;51.436;7.356;2023-02-26T14:06:59;6.70;30.60
1506;DHT22;744;51.436;7.356;2023-02-26T14:09:35;6.50;30.40
1506;DHT22;744;51.436;7.356;2023-02-26T14:20:15;6.70;31.00
1506;DHT22;744;51.436;7.356;2023-02-26T14:22:45;6.70;30.70
1506;DHT22;744;51.436;7.356;2023-02-26T14:25:26;6.90;30.90
1506;DHT22;744;51.436;7.356;2023-02-26T14:34:28;7.10;30.30
1506;DHT22;744;51.436;7.356;2023-02-26T14:36:40;6.80;30.00
1506;DHT22;744;51.436;7.356;2023-02-26T14:39:23;6.70;30.00
1506;DHT22;744;51.436;7.356;2023-02-26T14:41:56;7.20;30.60
1506;DHT22;744;51.436;7.356;2023-02-26T14:44:29;7.20;30.60
1506;DHT22;744;51.436;7.356;2023-02-26T14:46:57;7.00;30.30
1506;DHT22;744;51.436;7.356;2023-02-26T14:49:29;7.20;30.30
1506;DHT22;744;51.436;7.356;2023-02-26T15:09:52;6.70;30.20
1506;DHT22;744;51.436;7.356;2023-02-26T15:15:46;6.70;30.50
1506;DHT22;744;51.436;7.356;2023-02-26T15:23:50;7.20;31.00
1506;DHT22;744;51.436;7.356;2023-02-26T15:26:25;7.00;30.60
1506;DHT22;744;51.436;7.356;2023-02-26T15:28:54;7.00;30.40
1506;DHT22;744;51.436;7.356;2023-02-26T15:31:41;6.80;30.40
1506;DHT22;744;51.436;7.356;2023-02-26T15:34:11;7.00;30.50
1506;DHT22;744;51.436;7.356;2023-02-26T15:36:43;7.20;30.60
1506;DHT22;744;51.436;7.356;2023-02-26T15:39:15;6.80;30.00
1506;DHT22;744;51.436;7.356;2023-02-26T15:41:45;6.60;30.00
1506;DHT22;744;51.436;7.356;2023-02-26T15:44:18;6.70;30.20
1506;DHT22;744;51.436;7.356;2023-02-26T15:46:51;6.90;30.30
1506;DHT22;744;51.436;7.356;2023-02-26T15:49:33;6.70;30.20
1506;DHT22;744;51.436;7.356;2023-02-26T15:52:02;6.80;30.20
1506;DHT22;744;51.436;7.356;2023-02-26T15:54:38;6.70;30.30
1506;DHT22;744;51.436;7.356;2023-02-26T15:57:08;7.00;30.40
1506;DHT22;744;51.436;7.356;2023-02-26T15:59:39;7.00;30.20
1506;DHT22;744;51.436;7.356;2023-02-26T16:02:17;7.00;30.30
1506;DHT22;744;51.436;7.356;2023-02-26T16:04:45;7.30;30.40
1506;DHT22;744;51.436;7.356;2023-02-26T16:07:12;7.20;30.40
1506;DHT22;744;51.436;7.356;2023-02-26T16:09:43;6.90;30.20
1506;DHT22;744;51.436;7.356;2023-02-26T16:12:20;7.20;30.50
1506;DHT22;744;51.436;7.356;2023-02-26T16:14:54;7.10;30.50
1506;DHT22;744;51.436;7.356;2023-02-26T16:17:27;7.10;30.30
1506;DHT22;744;51.436;7.356;2023-02-26T16:19:57;7.10;30.40
1506;DHT22;744;51.436;7.356;2023-02-26T16:22:45;6.70;30.20
1506;DHT22;744;51.436;7.356;2023-02-26T16:25:29;6.70;30.30
1506;DHT22;744;51.436;7.356;2023-02-26T16:28:11;7.00;30.50
1506;DHT22;744;51.436;7.356;2023-02-26T16:30:42;6.90;30.40
1506;DHT22;744;51.436;7.356;2023-02-26T16:33:16;6.90;30.60
1506;DHT22;744;51.436;7.356;2023-02-26T16:35:47;6.70;30.50
1506;DHT22;744;51.436;7.356;2023-02-26T16:38:21;6.90;30.50
1506;DHT22;744;51.436;7.356;2023-02-26T16:40:58;7.20;30.50
1506;DHT22;744;51.436;7.356;2023-02-26T16:43:50;6.90;30.10
1506;DHT22;744;51.436;7.356;2023-02-26T16:46:30;6.70;30.00
1506;DHT22;744;51.436;7.356;2023-02-26T16:49:02;6.70;30.00
1506;DHT22;744;51.436;7.356;2023-02-26T16:51:33;6.90;30.20
1506;DHT22;744;51.436;7.356;2023-02-26T16:54:05;6.90;30.20
1506;DHT22;744;51.436;7.356;2023-02-26T16:56:39;6.80;30.00
1506;DHT22;744;51.436;7.356;2023-02-26T17:01:48;6.80;30.00
1506;DHT22;744;51.436;7.356;2023-02-26T17:04:16;6.80;30.00
1506;DHT22;744;51.436;7.356;2023-02-26T17:06:46;6.90;30.00
1506;DHT22;744;51.436;7.356;2023-02-26T17:09:40;7.20;30.20
1506;DHT22;744;51.436;7.356;2023-02-26T17:14:45;7.10;30.10
1506;DHT22;744;51.436;7.356;2023-02-26T17:17:13;7.10;30.10
1506;DHT22;744;51.436;7.356;2023-02-26T17:19:40;7.20;30.20
1506;DHT22;744;51.436;7.356;2023-02-26T17:22:12;7.20;30.90
1506;DHT22;744;51.436;7.356;2023-02-26T17:24:40;6.70;30.00
1506;DHT22;744;51.436;7.356;2023-02-26T17:30:44;6.70;30.10
1506;DHT22;744;51.436;7.356;2023-02-26T17:33:12;6.70;30.40
1506;DHT22;744;51.436;7.356;2023-02-26T17:35:40;6.40;30.30
1506;DHT22;744;51.436;7.356;2023-02-26T17:38:11;6.60;30.60
1506;DHT22;744;51.436;7.356;2023-02-26T17:40:43;6.40;30.60
1506;DHT22;744;51.436;7.356;2023-02-26T17:43:10;6.30;30.70
1506;DHT22;744;51.436;7.356;2023-02-26T17:45:38;6.60;31.10
1506;DHT22;744;51.436;7.356;2023-02-26T17:48:06;6.30;30.90
1506;DHT22;744;51.436;7.356;2023-02-26T17:53:16;6.20;31.20
1506;DHT22;744;51.436;7.356;2023-02-26T17:55:44;6.40;31.40
1506;DHT22;744;51.436;7.356;2023-02-26T17:58:17;6.50;31.50
1506;DHT22;744;51.436;7.356;2023-02-26T18:00:45;6.30;31.30
1506;DHT22;744;51.436;7.356;2023-02-26T18:03:15;6.20;31.40
1506;DHT22;744;51.436;7.356;2023-02-26T18:05:42;6.30;31.60
1506;DHT22;744;51.436;7.356;2023-02-26T18:08:22;6.50;31.80
1506;DHT22;744;51.436;7.356;2023-02-26T18:10:50;6.50;31.70
1506;DHT22;744;51.436;7.356;2023-02-26T18:13:18;6.40;31.70
1506;DHT22;744;51.436;7.356;2023-02-26T18:15:46;6.40;31.80
1506;DHT22;744;51.436;7.356;2023-02-26T18:18:14;6.40;31.90
1506;DHT22;744;51.436;7.356;2023-02-26T18:20:41;6.40;31.80
1506;DHT22;744;51.436;7.356;2023-02-26T18:23:10;6.40;31.90
1506;DHT22;744;51.436;7.356;2023-02-26T18:25:39;6.60;32.10
1506;DHT22;744;51.436;7.356;2023-02-26T18:28:17;6.60;32.30
1506;DHT22;744;51.436;7.356;2023-02-26T18:30:46;6.50;32.10
1506;DHT22;744;51.436;7.356;2023-02-26T18:33:13;6.60;32.20
1506;DHT22;744;51.436;7.356;2023-02-26T18:35:51;6.60;32.20
1506;DHT22;744;51.436;7.356;2023-02-26T18:38:24;6.70;32.40
1506;DHT22;744;51.436;7.356;2023-02-26T18:40:51;6.80;32.60
1506;DHT22;744;51.436;7.356;2023-02-26T18:43:19;6.70;32.40
1506;DHT22;744;51.436;7.356;2023-02-26T18:45:48;6.90;32.70
1506;DHT22;744;51.436;7.356;2023-02-26T18:48:17;6.90;32.70
1506;DHT22;744;51.436;7.356;2023-02-26T18:50:45;6.70;32.40
1506;DHT22;744;51.436;7.356;2023-02-26T18:53:13;6.70;32.60
1506;DHT22;744;51.436;7.356;2023-02-26T18:55:42;6.90;32.80
1506;DHT22;744;51.436;7.356;2023-02-26T18:58:09;6.70;32.70
1506;DHT22;744;51.436;7.356;2023-02-26T19:00:37;7.00;33.00
1506;DHT22;744;51.436;7.356;2023-02-26T19:03:03;6.90;32.90
1506;DHT22;744;51.436;7.356;2023-02-26T19:05:31;7.00;32.90
1506;DHT22;744;51.436;7.356;2023-02-26T19:07:57;6.70;32.80
1506;DHT22;744;51.436;7.356;2023-02-26T19:10:25;6.60;32.80
1506;DHT22;744;51.436;7.356;2023-02-26T19:12:55;6.70;33.10
1506;DHT22;744;51.436;7.356;2023-02-26T19:15:23;6.60;33.20
1506;DHT22;744;51.436;7.356;2023-02-26T19:17:50;6.70;33.30
1506;DHT22;744;51.436;7.356;2023-02-26T19:20:17;6.40;33.10
1506;DHT22;744;51.436;7.356;2023-02-26T19:22:44;6.60;33.30
1506;DHT22;744;51.436;7.356;2023-02-26T19:25:12;6.40;33.20
1506;DHT22;744;51.436;7.356;2023-02-26T19:27:39;6.50;33.30
1506;DHT22;744;51.436;7.356;2023-02-26T19:30:06;6.50;33.40
1506;DHT22;744;51.436;7.356;2023-02-26T19:32:33;6.70;34.30
1506;DHT22;744;51.436;7.356;2023-02-26T19:35:00;6.60;33.60
1506;DHT22;744;51.436;7.356;2023-02-26T19:37:27;6.70;33.60
1506;DHT22;744;51.436;7.356;2023-02-26T19:39:54;6.30;33.40
1506;DHT22;744;51.436;7.356;2023-02-26T19:42:21;6.40;33.50
1506;DHT22;744;51.436;7.356;2023-02-26T19:44:49;6.60;33.90
1506;DHT22;744;51.436;7.356;2023-02-26T19:47:16;6.40;33.90
1506;DHT22;744;51.436;7.356;2023-02-26T19:49:43;6.40;34.10
1506;DHT22;744;51.436;7.356;2023-02-26T19:52:09;6.60;34.30
1506;DHT22;744;51.436;7.356;2023-02-26T19:54:36;6.40;34.20